Time;durP1;ratioP1;P1;durP2;ratioP2;P2;SDS_P1;SDS_P2;PMS_P1;PMS_P2;Temp;Humidity;BMP_temperature;BMP_pressure;BME280_temperature;BME280_humidity;BME280_pressure;Samples;Min_cycle;Max_cycle;Signal;HPM_P1;HPM_P2
2021/08/26 00:16:25;;;;;;;8.00;7.20;;;;;;;19.30;76.23;94215.00;828147;71;31720;-78
2021/08/26 00:31:18;;;;;;;9.33;8.43;;;;;;;19.17;77.15;94205.61;827337;71;32178;-75
2021/08/26 00:46:20;;;;;;;8.98;8.08;;;;;;;19.07;77.31;94202.93;834050;71;31804;-75
2021/08/26 01:01:42;;;;;;;10.00;9.00;;;;;;;18.98;77.99;94196.48;833849;71;31720;-77
2021/08/26 01:16:32;;;;;;;12.18;9.70;;;;;;;19.01;78.91;94200.34;833973;71;32578;-78
2021/08/26 01:31:25;;;;;;;10.25;9.25;;;;;;;18.96;78.69;94175.36;827429;71;32711;-77
2021/08/26 01:46:17;;;;;;;12.73;10.20;;;;;;;18.90;79.25;94193.47;828366;71;29768;-77
2021/08/26 02:01:37;;;;;;;12.00;10.23;;;;;;;18.92;79.36;94182.50;827491;71;33091;-76
2021/08/26 02:16:14;;;;;;;11.03;9.40;;;;;;;18.98;79.26;94182.43;828602;71;30320;-77
2021/08/26 02:31:10;;;;;;;13.00;9.73;;;;;;;19.01;78.54;94160.45;828267;71;29703;-76
2021/08/26 02:46:24;;;;;;;10.18;8.83;;;;;;;19.02;78.59;94167.32;828521;71;30239;-76
2021/08/26 03:16:10;;;;;;;8.70;7.80;;;;;;;21.54;71.51;94154.11;828485;71;29703;-73
2021/08/26 03:31:24;;;;;;;7.57;6.87;;;;;;;22.96;64.77;94157.52;828170;71;30705;-75
2021/08/26 03:46:27;;;;;;;7.53;6.83;;;;;;;23.59;61.42;94157.58;833970;71;33205;-76
2021/08/26 04:01:18;;;;;;;7.90;7.10;;;;;;;23.93;60.11;94145.82;828722;71;29691;-76
2021/08/26 04:16:23;;;;;;;8.90;7.50;;;;;;;24.11;59.50;94151.20;827621;71;33156;-76
2021/08/26 04:31:14;;;;;;;9.07;7.17;;;;;;;24.26;59.89;94164.02;829404;71;29697;-77
2021/08/26 04:46:28;;;;;;;7.37;6.77;;;;;;;24.28;59.73;94162.48;834144;71;29689;-74
2021/08/26 05:01:10;;;;;;;7.73;7.03;;;;;;;24.37;58.62;94145.99;828298;71;30820;-74
2021/08/26 05:16:22;;;;;;;7.67;6.90;;;;;;;24.13;58.02;94146.22;828256;71;29665;-78
2021/08/26 05:31:24;;;;;;;7.80;7.10;;;;;;;22.55;63.27;94160.34;833792;71;30210;-76
2021/08/26 05:46:18;;;;;;;7.90;7.07;;;;;;;21.56;67.01;94110.46;828296;71;29720;-79
2021/08/26 06:01:17;;;;;;;7.78;7.08;;;;;;;20.51;69.82;94127.66;833930;71;30451;-75
2021/08/26 06:16:18;;;;;;;7.70;7.00;;;;;;;20.12;72.95;94141.17;828303;71;29649;-77
2021/08/26 06:31:13;;;;;;;8.08;6.75;;;;;;;20.37;73.19;94148.77;828652;71;29790;-76
2021/08/26 06:46:15;;;;;;;6.95;6.28;;;;;;;20.47;72.69;94122.08;827654;71;32798;-78
2021/08/26 07:01:23;;;;;;;8.08;7.03;;;;;;;20.90;69.90;94124.00;804737;71;30288;-76
2021/08/26 07:16:26;;;;;;;7.70;7.00;;;;;;;20.45;69.38;94116.34;827463;71;32680;-78
2021/08/26 07:31:17;;;;;;;7.25;6.55;;;;;;;20.54;70.15;94115.49;833974;71;30241;-78
2021/08/26 07:32:21;;;;;;;7.10;6.35;;;;;;;20.57;70.01;94120.88;821821;72;26326;-78
2021/08/26 07:46:22;;;;;;;7.80;7.00;;;;;;;20.92;69.24;94143.83;814129;71;32719;-76
2021/08/26 08:01:34;;;;;;;7.50;6.75;;;;;;;21.15;67.56;94149.66;827088;71;32637;-76
2021/08/26 08:16:12;;;;;;;10.03;9.00;;;;;;;20.79;68.92;94111.30;828211;71;30159;-75
2021/08/26 08:31:24;;;;;;;8.13;7.17;;;;;;;21.94;65.57;94107.17;834110;71;30226;-77
2021/08/26 08:46:46;;;;;;;8.10;7.33;;;;;;;21.89;66.10;94124.87;834217;71;33133;-79
2021/08/26 09:16:08;;;;;;;10.77;8.73;;;;;;;21.67;67.34;94133.83;834117;71;30166;-77
2021/08/26 09:31:20;;;;;;;9.17;8.27;;;;;;;21.83;67.85;94131.69;834327;71;30419;-76
2021/08/26 09:46:09;;;;;;;9.95;8.85;;;;;;;21.98;68.79;94142.70;834311;71;29702;-77
2021/08/26 10:01:16;;;;;;;69.30;54.50;;;;;;;22.09;73.65;94144.70;829586;71;29701;-75
2021/08/26 10:16:10;;;;;;;18.93;16.60;;;;;;;24.22;67.46;94131.84;824249;71;30337;-75
2021/08/26 10:31:26;;;;;;;8.80;7.90;;;;;;;24.84;63.97;94129.28;828025;71;29693;-78
2021/08/26 10:46:14;;;;;;;9.57;8.57;;;;;;;25.21;62.64;94124.00;833673;71;33222;-79
2021/08/26 11:01:15;;;;;;;11.30;10.20;;;;;;;25.50;60.50;94129.23;834025;71;29599;-78
2021/08/26 11:16:28;;;;;;;16.03;14.33;;;;;;;24.28;61.47;94109.43;827230;71;32781;-76
2021/08/26 11:31:15;;;;;;;16.93;15.23;;;;;;;24.09;62.40;94079.19;828157;71;30616;-76
2021/08/26 11:46:17;;;;;;;15.10;13.60;;;;;;;25.00;60.78;94060.40;828175;71;30382;-75
2021/08/26 12:01:22;;;;;;;15.83;14.33;;;;;;;26.11;57.96;94028.76;827755;71;30791;-79
2021/08/26 12:16:23;;;;;;;19.60;17.63;;;;;;;;;;833735;71;32824;-77
2021/08/26 12:31:16;;;;;;;17.10;15.37;;;;;;;;;;819367;71;30495;-77
2021/08/26 12:46:19;;;;;;;24.30;20.07;;;;;;;24.42;60.46;93949.06;827271;71;32736;-77
2021/08/26 13:01:25;;;;;;;17.33;15.60;;;;;;;24.55;61.34;93948.83;833886;71;29712;-78
2021/08/26 13:16:21;;;;;;;16.17;14.20;;;;;;;24.57;61.85;93953.22;828299;71;29792;-77
2021/08/26 13:17:26;;;;;;;16.63;15.03;;;;;;;24.56;62.04;93956.48;808740;72;26507;-75
2021/08/26 13:31:31;;;;;;;19.20;17.17;;;;;;;24.50;62.58;93947.91;827326;71;32677;-77
2021/08/26 13:46:43;;;;;;;23.13;20.63;;;;;;;23.27;67.71;93973.33;827294;71;32753;-76
2021/08/26 14:01:21;;;;;;;14.53;13.20;;;;;;;22.13;72.93;93968.53;827644;71;33422;-77
2021/08/26 14:16:14;;;;;;;15.47;13.87;;;;;;;21.75;77.18;93984.52;828320;71;29718;-76
2021/08/26 14:31:15;;;;;;;17.73;15.93;;;;;;;21.27;80.43;93969.27;828067;71;32553;-75
2021/08/26 19:46:27;;;;;;;13.80;11.67;;;;;;;24.10;69.79;93951.27;835071;71;29836;-75
2021/08/26 20:01:35;;;;;;;11.00;10.00;;;;;;;24.35;66.87;93947.94;827443;71;32758;-78
2021/08/26 20:16:30;;;;;;;9.80;8.50;;;;;;;24.36;65.86;93956.16;828421;71;32762;-78
2021/08/26 20:31:22;;;;;;;9.00;8.20;;;;;;;22.58;70.30;93954.42;834129;71;30431;-78
2021/08/26 20:46:28;;;;;;;10.77;9.73;;;;;;;21.64;73.92;93966.34;828925;71;32776;-78
2021/08/26 21:16:26;;;;;;;9.23;8.30;;;;;;;20.65;78.79;93970.38;833860;71;32631;-78
2021/08/26 21:31:25;;;;;;;10.35;8.95;;;;;;;20.43;80.45;93984.00;827565;71;32711;-79
2021/08/26 21:46:17;;;;;;;12.35;8.78;;;;;;;20.24;81.34;93976.35;828195;71;29790;-76
2021/08/26 22:01:21;;;;;;;10.60;9.50;;;;;;;20.13;83.08;93970.90;828386;71;32699;-76
2021/08/26 22:16:13;;;;;;;12.30;10.88;;;;;;;19.84;82.77;93977.72;828208;71;30181;-78
2021/08/26 22:31:10;;;;;;;12.25;10.82;;;;;;;19.56;83.93;93954.84;828198;71;29775;-77
2021/08/26 22:46:29;;;;;;;12.80;10.65;;;;;;;19.47;84.92;93957.58;827149;71;32797;-78
2021/08/26 23:01:29;;;;;;;13.58;11.28;;;;;;;19.46;86.01;93948.80;833798;71;32812;-76
2021/08/26 23:16:29;;;;;;;14.15;11.73;;;;;;;19.38;86.20;93951.14;818436;71;33604;-77
2021/08/26 23:31:24;;;;;;;13.68;11.65;;;;;;;19.34;86.73;93921.06;827120;71;33127;-77
2021/08/26 23:46:36;;;;;;;15.35;12.78;;;;;;;19.27;86.54;93943.58;827155;71;32715;-79
